createdAt,value
2023-04-05T00:03:14.500Z,17.4
2023-04-05T00:13:14.230Z,17.3
2023-04-05T00:23:14.451Z,16.8
2023-04-05T00:33:14.333Z,17.1
2023-04-05T00:43:14.670Z,17.1
2023-04-05T00:53:14.961Z,17.1
2023-04-05T01:03:15.077Z,17.1
2023-04-05T01:13:15.212Z,17.1
2023-04-05T01:23:15.003Z,16.9
2023-04-05T01:33:14.921Z,17.1
2023-04-05T01:43:14.692Z,17.2
2023-04-05T01:53:14.586Z,17.1
2023-04-05T02:03:14.557Z,16.9
2023-04-05T02:13:14.554Z,16.9
2023-04-05T02:23:14.426Z,17.1
2023-04-05T02:33:14.459Z,16.9
2023-04-05T02:43:14.701Z,16.9
2023-04-05T02:53:14.827Z,17.1
2023-04-05T03:03:08.085Z,18.9
2023-04-05T03:13:08.405Z,18.9
2023-04-05T03:23:07.862Z,18.8
2023-04-05T03:33:08.082Z,18.9
2023-04-05T03:43:07.913Z,17.3
2023-04-05T03:53:07.981Z,16.8
2023-04-05T04:03:08.060Z,16.9
2023-04-05T04:13:08.805Z,16.9
2023-04-05T04:23:09.975Z,18.9
2023-04-05T04:33:10.153Z,16.9
2023-04-05T04:43:10.989Z,16.8
2023-04-05T04:53:11.943Z,18.8
2023-04-05T05:03:12.448Z,16.6
2023-04-05T05:13:11.955Z,17.2
2023-04-05T05:23:11.124Z,17.1
2023-04-05T05:33:10.594Z,16.9
2023-04-05T05:43:10.448Z,19
2023-04-05T05:53:09.833Z,17.3
2023-04-05T06:03:11.551Z,18
2023-04-05T06:13:11.160Z,19.1
2023-04-05T06:23:11.093Z,19.1
2023-04-05T06:33:11.328Z,19.2
2023-04-05T06:43:19.679Z,22.6
2023-04-05T06:53:34.220Z,22.4
2023-04-05T07:03:49.654Z,23.4
2023-04-05T07:14:01.457Z,23.1
2023-04-05T07:24:09.602Z,22.2
2023-04-05T07:34:14.806Z,22.5
2023-04-05T07:44:19.940Z,21.6
2023-04-05T07:54:23.951Z,20.6
2023-04-05T08:04:27.944Z,20.2
2023-04-05T08:14:31.302Z,20.4
2023-04-05T08:24:34.828Z,20.5
2023-04-05T08:34:38.372Z,20.4
2023-04-05T08:44:42.320Z,19.7
2023-04-05T08:54:49.017Z,22.4
2023-04-05T09:03:09.935Z,22.4
2023-04-05T09:13:16.510Z,22.7
2023-04-05T09:23:28.537Z,24.1
2023-04-05T09:33:43.017Z,23.9
2023-04-05T09:43:58.559Z,23.3
2023-04-05T09:54:12.616Z,23.9
2023-04-05T10:04:27.681Z,24
2023-04-05T10:14:44.452Z,23.8
2023-04-05T10:24:57.633Z,23.7
2023-04-05T10:35:07.248Z,21.9
2023-04-05T10:45:18.030Z,21.8
2023-04-05T10:55:24.237Z,22.9
2023-04-05T11:05:27.112Z,20
2023-04-05T11:15:29.862Z,20.8
2023-04-05T11:25:35.724Z,18.6
2023-04-05T11:35:41.281Z,21.7
2023-04-05T11:45:52.828Z,23.8
2023-04-05T11:56:00.431Z,19.3
2023-04-05T12:06:06.844Z,21.8
2023-04-05T12:16:16.013Z,19.9
2023-04-05T12:26:22.864Z,21.8
2023-04-05T12:36:28.743Z,23.7
2023-04-05T12:46:33.814Z,20.4
2023-04-05T12:56:36.898Z,22.6
2023-04-05T13:06:38.764Z,20.3
2023-04-05T13:16:41.954Z,20.2
2023-04-05T13:26:43.119Z,19.8
2023-04-05T13:36:44.490Z,19.4
2023-04-05T13:46:45.851Z,19.9
2023-04-05T13:56:48.513Z,19.8
2023-04-05T14:06:49.688Z,18.8
2023-04-05T14:16:48.618Z,20.3
2023-04-05T14:26:48.377Z,18.5
2023-04-05T14:36:47.127Z,18.2
2023-04-05T14:46:48.977Z,18
2023-04-05T14:56:47.380Z,18.2
2023-04-05T15:03:07.439Z,17.6
2023-04-05T15:13:07.403Z,17.8
2023-04-05T15:23:06.650Z,17.9
2023-04-05T15:33:06.329Z,19.8
2023-04-05T15:43:05.564Z,17.4
2023-04-05T15:53:04.721Z,17.6
2023-04-05T16:03:06.042Z,19.4
2023-04-05T16:13:09.638Z,19.4
2023-04-05T16:23:13.473Z,19.6
2023-04-05T16:33:17.111Z,19.4
2023-04-05T16:43:20.816Z,19.3
2023-04-05T16:53:24.580Z,19.2
2023-04-05T17:03:27.989Z,19.2
2023-04-05T17:13:30.349Z,19.3
2023-04-05T17:23:32.996Z,18.9
2023-04-05T17:33:35.621Z,19.1
2023-04-05T17:43:38.356Z,18.9
2023-04-05T17:53:41.101Z,18.9
2023-04-05T18:03:44.041Z,18.8
2023-04-05T18:13:46.729Z,19
2023-04-05T18:23:49.525Z,18.6
2023-04-05T18:33:52.262Z,18.8
2023-04-05T18:43:55.150Z,18.8
2023-04-05T18:53:58.103Z,18.9
2023-04-05T19:04:00.865Z,18.9
2023-04-05T19:14:03.947Z,18.6
2023-04-05T19:24:06.947Z,18.8
2023-04-05T19:34:10.005Z,18.8
2023-04-05T19:44:13.217Z,18.8
2023-04-05T19:54:15.945Z,18.8
2023-04-05T20:04:19.021Z,18.6
2023-04-05T20:14:22.445Z,18.6
2023-04-05T20:24:27.163Z,18.5
2023-04-05T20:34:28.193Z,18.5
2023-04-05T20:44:31.818Z,18.4
2023-04-05T20:54:34.850Z,18.4
2023-04-05T21:03:08.520Z,18.6
2023-04-05T21:13:11.921Z,18.6
2023-04-05T21:23:15.478Z,18.4
2023-04-05T21:33:18.841Z,18.4
2023-04-05T21:43:20.493Z,18.6
2023-04-05T21:53:21.276Z,16.4
2023-04-05T22:03:23.722Z,16.3
2023-04-05T22:13:25.263Z,16.4
2023-04-05T22:23:25.745Z,16.3
2023-04-05T22:33:27.222Z,18.4
2023-04-05T22:43:28.036Z,16.3
2023-04-05T22:53:29.641Z,18.3
2023-04-05T23:03:30.139Z,16.1
2023-04-05T23:13:29.008Z,16.4
2023-04-05T23:23:28.962Z,16.4
2023-04-05T23:33:28.101Z,16.1
2023-04-05T23:43:28.053Z,16.2
2023-04-05T23:53:28.315Z,18.4
